KSTC/STC METAR and TAF weather

Enter ICAO airport designator
Station Type Date Time Source
KSTC METAR 2020/09/19 05:53 UTC NOAA

KSTC 190553Z AUTO 00000KT 10SM CLR 04/02 A3028 RMK AO2 SLP268 T00390017 10133 20039 401720011 58004


Station Type Date Time Source
KSTC Decoded METAR 2020/09/19 05:53 UTC NOAA

ST. CLOUD REGIONAL AIRPORT, MN, United States (KSTC) 45-33N 094-03W
Sep 19, 2020 - 01:53 AM EDT / 2020.09.19 0553 UTC
Wind: Calm:0
Visibility: 10 mile(s):0
Sky conditions: clear
Temperature: 39.0 F (3.9 C)
Dew Point: 35.1 F (1.7 C)
Relative Humidity: 85%
Pressure (altimeter): 30.28 in. Hg (1025 hPa)
Pressure tendency: 0.01 inches (0.4 hPa) lower than three hours ago
ob: KSTC 190553Z AUTO 00000KT 10SM CLR 04/02 A3028 RMK AO2 SLP268 T00390017 10133 20039 401720011 58004
cycle: 6

Station Type Date Time Source
KSTC TAF 2020/09/19 06:22 UTC NOAA

TAF KSTC 190520Z 1906/2006 14004KT P6SM SKC
FM191600 17012G20KT P6SM SCT060
FM200100 15009KT P6SM FEW250

Example: see airport list